createdAt,value
2023-05-08T00:00:58.981Z,17.30
2023-05-08T00:03:27.575Z,17.20
2023-05-08T00:05:56.511Z,17.20
2023-05-08T00:08:24.521Z,17.20
2023-05-08T00:10:52.556Z,17.20
2023-05-08T00:13:21.114Z,17.20
2023-05-08T00:15:51.102Z,17.10
2023-05-08T00:18:19.048Z,17.10
2023-05-08T00:20:47.396Z,17.10
2023-05-08T00:23:15.784Z,17.10
2023-05-08T00:25:44.080Z,17.00
2023-05-08T00:28:12.213Z,17.00
2023-05-08T00:30:40.323Z,17.00
2023-05-08T00:33:09.938Z,17.00
2023-05-08T00:35:38.666Z,17.00
2023-05-08T00:38:06.696Z,16.90
2023-05-08T00:40:34.863Z,16.90
2023-05-08T00:43:02.902Z,16.90
2023-05-08T00:45:38.107Z,16.90
2023-05-08T00:48:06.734Z,16.90
2023-05-08T00:50:37.382Z,16.90
2023-05-08T00:53:07.307Z,16.80
2023-05-08T00:55:35.626Z,16.80
2023-05-08T00:58:04.117Z,16.80
2023-05-08T01:00:33.104Z,16.80
2023-05-08T01:03:01.687Z,16.70
2023-05-08T01:05:29.962Z,16.70
2023-05-08T01:07:59.333Z,16.70
2023-05-08T01:10:37.849Z,16.70
2023-05-08T01:13:19.839Z,16.70
2023-05-08T01:15:52.915Z,16.70
2023-05-08T01:18:29.343Z,16.60
2023-05-08T01:21:06.348Z,16.60
2023-05-08T01:24:08.367Z,16.60
2023-05-08T01:27:12.887Z,16.60
2023-05-08T01:30:11.142Z,16.50
2023-05-08T01:32:44.823Z,16.50
2023-05-08T01:35:22.503Z,16.50
2023-05-08T01:38:01.109Z,16.50
2023-05-08T01:40:36.199Z,16.50
2023-05-08T01:43:14.032Z,16.50
2023-05-08T01:45:47.611Z,16.50
2023-05-08T01:48:22.240Z,16.40
2023-05-08T01:50:56.897Z,16.40
2023-05-08T01:53:29.845Z,16.40
2023-05-08T01:56:01.850Z,16.40
2023-05-08T01:58:31.699Z,16.30
2023-05-08T02:01:01.169Z,16.30
2023-05-08T02:03:32.659Z,16.30
2023-05-08T02:06:02.298Z,16.30
2023-05-08T02:08:32.011Z,16.30
2023-05-08T02:11:03.040Z,16.20
2023-05-08T02:13:33.973Z,16.20
2023-05-08T02:16:03.693Z,16.20
2023-05-08T02:18:34.130Z,16.20
2023-05-08T02:21:05.019Z,16.20
2023-05-08T02:23:35.676Z,16.20
2023-05-08T02:26:05.907Z,16.20
2023-05-08T02:28:34.572Z,16.10
2023-05-08T02:31:03.797Z,16.10
2023-05-08T02:33:33.653Z,16.10
2023-05-08T02:36:03.973Z,16.00
2023-05-08T02:38:33.401Z,16.10
2023-05-08T02:41:05.616Z,16.10
2023-05-08T02:43:34.338Z,16.10
2023-05-08T02:46:11.541Z,16.00
2023-05-08T02:48:48.875Z,16.00
2023-05-08T02:51:21.637Z,16.10
2023-05-08T02:53:55.856Z,16.00
2023-05-08T02:56:37.310Z,16.00
2023-05-08T02:59:23.393Z,16.00
2023-05-08T03:01:56.837Z,16.00
2023-05-08T03:04:32.263Z,16.00
2023-05-08T03:07:01.977Z,15.90
2023-05-08T03:09:40.683Z,15.90
2023-05-08T03:12:15.361Z,15.90
2023-05-08T03:14:54.000Z,15.90
2023-05-08T03:17:23.949Z,15.90
2023-05-08T03:20:00.681Z,15.80
2023-05-08T03:22:31.947Z,15.90
2023-05-08T03:25:02.512Z,15.90
2023-05-08T03:27:31.669Z,15.90
2023-05-08T03:30:00.456Z,15.90
2023-05-08T03:32:30.258Z,15.90
2023-05-08T03:35:00.790Z,15.80
2023-05-08T03:37:29.550Z,15.90
2023-05-08T03:39:58.383Z,15.80
2023-05-08T03:42:29.648Z,15.90
2023-05-08T03:45:01.464Z,15.90
2023-05-08T03:47:30.622Z,15.90
2023-05-08T03:50:01.251Z,15.80
2023-05-08T03:52:30.304Z,15.90
2023-05-08T03:54:58.552Z,15.90
2023-05-08T03:57:31.880Z,15.80
2023-05-08T04:00:05.328Z,15.90
2023-05-08T04:02:42.629Z,15.90
2023-05-08T04:05:22.152Z,15.90
2023-05-08T04:07:54.689Z,15.90
2023-05-08T04:10:28.371Z,15.90
2023-05-08T04:13:05.427Z,15.90
2023-05-08T04:15:39.391Z,15.90
2023-05-08T04:18:10.649Z,15.90
2023-05-08T04:20:42.950Z,15.90
2023-05-08T04:23:16.815Z,16.00
2023-05-08T04:25:48.621Z,15.90
2023-05-08T04:28:17.896Z,16.00
2023-05-08T04:30:46.568Z,16.00
2023-05-08T04:33:15.960Z,16.00
2023-05-08T04:35:46.470Z,16.00
2023-05-08T04:38:15.033Z,16.00
2023-05-08T04:40:43.012Z,16.00
2023-05-08T04:43:11.000Z,16.00
2023-05-08T04:45:38.964Z,16.00
2023-05-08T04:48:07.791Z,16.10
2023-05-08T04:50:35.878Z,16.10
2023-05-08T04:53:05.206Z,16.10
2023-05-08T04:55:33.164Z,16.00
2023-05-08T04:58:01.134Z,16.00
2023-05-08T05:00:29.095Z,16.00
2023-05-08T05:02:57.151Z,16.10
2023-05-08T05:05:25.163Z,16.10
2023-05-08T05:07:53.136Z,16.00
2023-05-08T05:10:22.610Z,16.00
2023-05-08T05:12:50.596Z,16.00
2023-05-08T05:15:18.668Z,16.10
2023-05-08T05:17:46.681Z,16.00
2023-05-08T05:20:14.959Z,16.00
2023-05-08T05:22:42.872Z,16.10
2023-05-08T05:25:12.503Z,16.00
2023-05-08T05:27:42.275Z,16.10
2023-05-08T05:30:10.876Z,16.00
2023-05-08T05:32:39.151Z,16.10
2023-05-08T05:35:08.781Z,16.10
2023-05-08T05:37:36.912Z,16.00
2023-05-08T05:40:05.605Z,16.00
2023-05-08T05:42:33.535Z,16.00
2023-05-08T05:45:03.047Z,16.10
2023-05-08T05:47:31.041Z,16.10
2023-05-08T05:49:59.660Z,16.10
2023-05-08T05:52:27.789Z,16.10
2023-05-08T05:54:56.363Z,16.10
2023-05-08T05:57:24.325Z,16.10
2023-05-08T05:59:54.698Z,16.10
2023-05-08T06:02:24.231Z,16.10
2023-05-08T06:04:52.850Z,16.10
2023-05-08T06:07:21.191Z,16.10
2023-05-08T06:09:50.999Z,16.10
2023-05-08T06:12:19.262Z,16.10
2023-05-08T06:14:47.271Z,16.10
2023-05-08T06:17:15.283Z,16.10
2023-05-08T06:19:44.750Z,16.10
2023-05-08T06:22:12.783Z,16.10
2023-05-08T06:24:40.750Z,16.00
2023-05-08T06:27:08.876Z,16.00
2023-05-08T06:29:36.808Z,16.10
2023-05-08T06:32:04.914Z,16.10
2023-05-08T06:34:33.037Z,16.10
2023-05-08T06:37:02.351Z,16.10
2023-05-08T06:39:30.333Z,16.10
2023-05-08T06:41:58.290Z,16.10
2023-05-08T06:44:26.295Z,16.10
2023-05-08T06:46:55.496Z,16.10
2023-05-08T06:49:23.944Z,16.20
2023-05-08T06:51:52.025Z,16.20
2023-05-08T06:54:21.377Z,16.20
2023-05-08T06:56:49.326Z,16.20
2023-05-08T06:59:17.287Z,16.20
2023-05-08T07:01:45.389Z,16.30
2023-05-08T07:04:16.498Z,16.30
2023-05-08T07:06:44.545Z,16.30
2023-05-08T07:09:13.000Z,16.30
2023-05-08T07:11:42.595Z,16.30
2023-05-08T07:14:10.571Z,16.30
2023-05-08T07:16:38.797Z,16.40
2023-05-08T07:19:06.844Z,16.40
2023-05-08T07:21:34.899Z,16.40
2023-05-08T07:24:03.030Z,16.50
2023-05-08T07:26:30.970Z,16.50
2023-05-08T07:29:00.414Z,16.50
2023-05-08T07:31:30.188Z,16.60
2023-05-08T07:33:58.196Z,16.60
2023-05-08T07:36:26.209Z,16.60
2023-05-08T07:38:54.339Z,16.60
2023-05-08T07:41:22.344Z,16.60
2023-05-08T07:43:50.315Z,16.70
2023-05-08T07:46:20.260Z,16.70
2023-05-08T07:48:48.250Z,16.70
2023-05-08T07:51:16.845Z,16.80
2023-05-08T07:53:44.989Z,16.80
2023-05-08T07:56:13.059Z,16.80
2023-05-08T07:58:42.552Z,16.80
2023-05-08T08:01:10.551Z,16.80
2023-05-08T08:03:39.954Z,16.90
2023-05-08T08:06:08.345Z,16.90
2023-05-08T08:08:36.598Z,16.90
2023-05-08T08:11:04.547Z,16.90
2023-05-08T08:13:32.951Z,16.90
2023-05-08T08:16:01.248Z,16.90
2023-05-08T08:18:29.271Z,16.90
2023-05-08T08:20:58.602Z,16.90
2023-05-08T08:23:26.640Z,17.00
2023-05-08T08:25:54.610Z,17.00
2023-05-08T08:28:22.788Z,17.00
2023-05-08T08:30:50.957Z,17.00
2023-05-08T08:33:19.431Z,17.00
2023-05-08T08:35:47.687Z,17.00
2023-05-08T08:38:17.525Z,17.10
2023-05-08T08:40:45.721Z,17.10
2023-05-08T08:43:13.904Z,17.10
2023-05-08T08:45:41.839Z,17.10
2023-05-08T08:48:13.143Z,17.10
2023-05-08T08:50:44.909Z,17.20
2023-05-08T08:53:22.531Z,17.20
2023-05-08T08:55:55.454Z,17.20
2023-05-08T08:58:28.889Z,17.30
2023-05-08T09:00:57.448Z,17.30
2023-05-08T09:03:25.771Z,17.40
2023-05-08T09:05:54.493Z,17.40
2023-05-08T09:08:24.379Z,17.40
2023-05-08T09:10:53.308Z,17.40
2023-05-08T09:13:21.418Z,17.50
2023-05-08T09:15:50.297Z,17.50
2023-05-08T09:18:19.292Z,17.50
2023-05-08T09:20:47.675Z,17.60
2023-05-08T09:23:17.413Z,17.60
2023-05-08T09:25:48.054Z,17.60
2023-05-08T09:28:20.965Z,17.70
2023-05-08T09:30:53.548Z,17.70
2023-05-08T09:33:22.912Z,17.80
2023-05-08T09:35:51.120Z,17.80
2023-05-08T09:38:35.954Z,17.90
2023-05-08T09:41:16.447Z,18.00
2023-05-08T09:43:45.533Z,18.00
2023-05-08T09:46:24.256Z,18.10
2023-05-08T09:48:53.561Z,18.10
2023-05-08T09:51:22.180Z,18.10
2023-05-08T09:53:53.039Z,18.10
2023-05-08T09:56:33.199Z,18.10
2023-05-08T09:59:01.256Z,18.20
2023-05-08T10:01:30.780Z,18.20
2023-05-08T10:03:58.942Z,18.20
2023-05-08T10:06:28.688Z,18.20
2023-05-08T10:09:11.137Z,18.30
2023-05-08T10:11:42.169Z,18.30
2023-05-08T10:14:10.597Z,18.30
2023-05-08T10:16:43.111Z,18.30
2023-05-08T10:19:15.932Z,18.30
2023-05-08T10:21:47.464Z,18.40
2023-05-08T10:24:18.513Z,18.50
2023-05-08T10:27:07.090Z,18.50
2023-05-08T10:29:43.958Z,18.50
2023-05-08T10:32:14.205Z,18.60
2023-05-08T10:34:42.956Z,18.60
2023-05-08T10:37:11.282Z,18.60
2023-05-08T10:39:39.976Z,18.60
2023-05-08T10:42:09.620Z,18.60
2023-05-08T10:44:39.478Z,18.70
2023-05-08T10:47:13.205Z,18.70
2023-05-08T10:49:49.679Z,18.60
2023-05-08T10:52:24.177Z,18.70
2023-05-08T10:55:17.622Z,18.70
2023-05-08T10:58:10.594Z,18.70
2023-05-08T11:01:12.540Z,18.70
2023-05-08T11:03:43.811Z,18.70
2023-05-08T11:06:12.236Z,18.70
2023-05-08T11:08:51.317Z,18.70
2023-05-08T11:11:26.830Z,18.70
2023-05-08T11:14:00.606Z,18.80
2023-05-08T11:17:07.112Z,18.80
2023-05-08T11:19:35.725Z,18.80
2023-05-08T11:22:24.909Z,18.80
2023-05-08T11:25:03.669Z,18.80
2023-05-08T11:28:02.496Z,18.80
2023-05-08T11:30:39.669Z,18.80
2023-05-08T11:33:18.177Z,18.80
2023-05-08T11:35:49.141Z,18.80
2023-05-08T11:38:26.414Z,18.90
2023-05-08T11:41:13.021Z,18.80
2023-05-08T11:44:20.558Z,18.80
2023-05-08T11:46:54.427Z,18.80
2023-05-08T11:49:28.098Z,18.80
2023-05-08T11:52:00.312Z,18.80
2023-05-08T11:54:32.071Z,18.80
2023-05-08T11:57:01.769Z,18.90
2023-05-08T11:59:29.816Z,18.80
2023-05-08T12:02:08.440Z,18.80
2023-05-08T12:04:47.169Z,18.90
2023-05-08T12:07:16.064Z,18.90
2023-05-08T12:09:44.143Z,18.90
2023-05-08T12:12:12.539Z,18.90
2023-05-08T12:14:40.532Z,18.90
2023-05-08T12:17:10.727Z,18.90
2023-05-08T12:19:38.806Z,18.80
2023-05-08T12:22:06.940Z,18.90
2023-05-08T12:24:34.991Z,19.00
2023-05-08T12:27:02.986Z,19.00
2023-05-08T12:29:31.089Z,19.00
2023-05-08T12:31:59.144Z,19.00
2023-05-08T12:34:28.600Z,19.00
2023-05-08T12:37:03.920Z,19.10
2023-05-08T12:39:36.879Z,19.10
2023-05-08T12:42:05.309Z,19.10
2023-05-08T12:44:33.402Z,19.10
2023-05-08T12:47:01.697Z,19.10
2023-05-08T12:49:32.405Z,19.20
2023-05-08T12:52:04.823Z,19.20
2023-05-08T12:54:37.939Z,19.20
2023-05-08T12:57:11.828Z,19.20
2023-05-08T12:59:40.232Z,19.20
2023-05-08T13:02:14.166Z,19.20
2023-05-08T13:04:43.797Z,19.20
2023-05-08T13:07:11.868Z,19.20
2023-05-08T13:09:40.117Z,19.20
2023-05-08T13:12:08.473Z,19.20
2023-05-08T13:14:36.488Z,19.10
2023-05-08T13:17:07.214Z,19.10
2023-05-08T13:19:35.277Z,19.10
2023-05-08T13:22:04.609Z,19.10
2023-05-08T13:24:32.560Z,19.00
2023-05-08T13:27:00.676Z,19.00
2023-05-08T13:29:28.749Z,19.00
2023-05-08T13:31:56.747Z,18.90
2023-05-08T13:34:25.449Z,18.90
2023-05-08T13:36:53.541Z,18.80
2023-05-08T13:39:22.926Z,18.80
2023-05-08T13:41:50.945Z,18.80
2023-05-08T13:44:18.927Z,18.80
2023-05-08T13:46:46.903Z,18.70
2023-05-08T13:49:14.876Z,18.70
2023-05-08T13:51:46.930Z,18.60
2023-05-08T13:54:17.089Z,18.70
2023-05-08T13:56:48.621Z,18.60
2023-05-08T13:59:16.645Z,18.70
2023-05-08T14:01:44.728Z,18.60
2023-05-08T14:04:12.854Z,18.60
2023-05-08T14:06:40.818Z,18.60
2023-05-08T14:09:09.297Z,18.50
2023-05-08T14:11:37.244Z,18.60
2023-05-08T14:14:06.619Z,18.50
2023-05-08T14:16:34.861Z,18.50
2023-05-08T14:19:02.988Z,18.50
2023-05-08T14:21:31.293Z,18.50
2023-05-08T14:23:59.387Z,18.50
2023-05-08T14:26:27.627Z,18.50
2023-05-08T14:28:55.575Z,18.60
2023-05-08T14:31:24.895Z,18.60
2023-05-08T14:33:52.914Z,18.60
2023-05-08T14:36:20.852Z,18.60
2023-05-08T14:38:48.880Z,18.60
2023-05-08T14:41:16.824Z,18.60
2023-05-08T14:43:44.754Z,18.60
2023-05-08T14:46:12.763Z,18.60
2023-05-08T14:48:42.140Z,18.60
2023-05-08T14:51:12.043Z,18.60
2023-05-08T14:53:40.161Z,18.60
2023-05-08T14:56:09.000Z,18.60
2023-05-08T14:58:37.196Z,18.60
2023-05-08T15:01:05.362Z,18.50
2023-05-08T15:03:33.850Z,18.50
2023-05-08T15:06:04.823Z,18.50
2023-05-08T15:08:32.786Z,18.50
2023-05-08T15:11:00.912Z,18.50
2023-05-08T15:13:29.057Z,18.50
2023-05-08T15:15:58.352Z,18.40
2023-05-08T15:18:28.516Z,18.40
2023-05-08T15:20:57.995Z,18.50
2023-05-08T15:23:27.306Z,18.40
2023-05-08T15:25:55.580Z,18.40
2023-05-08T15:28:23.578Z,18.40
2023-05-08T15:30:51.493Z,18.30
2023-05-08T15:33:19.539Z,18.30
2023-05-08T15:35:47.812Z,18.30
2023-05-08T15:38:15.903Z,18.30
2023-05-08T15:40:45.387Z,18.30
2023-05-08T15:43:13.486Z,18.30
2023-05-08T15:45:41.561Z,18.30
2023-05-08T15:48:09.539Z,18.30
2023-05-08T15:50:37.537Z,18.30
2023-05-08T15:53:05.763Z,18.30
2023-05-08T15:55:33.763Z,18.30
2023-05-08T15:58:03.393Z,18.30
2023-05-08T16:00:44.075Z,18.30
2023-05-08T16:03:13.082Z,18.30
2023-05-08T16:05:41.153Z,18.40
2023-05-08T16:08:12.368Z,18.50
2023-05-08T16:10:41.146Z,18.60
2023-05-08T16:13:10.512Z,18.70
2023-05-08T16:15:38.712Z,18.90
2023-05-08T16:18:07.635Z,19.00
2023-05-08T16:20:36.336Z,19.10
2023-05-08T16:23:04.596Z,19.20
2023-05-08T16:25:33.042Z,19.30
2023-05-08T16:28:01.051Z,19.30
2023-05-08T16:30:30.697Z,19.30
2023-05-08T16:32:58.982Z,19.30
2023-05-08T16:35:27.031Z,19.30
2023-05-08T16:37:55.352Z,19.20
2023-05-08T16:40:23.446Z,19.20
2023-05-08T16:42:51.487Z,19.10
2023-05-08T16:45:19.613Z,19.10
2023-05-08T16:47:48.995Z,19.00
2023-05-08T16:50:17.004Z,19.00
2023-05-08T16:52:48.177Z,19.00
2023-05-08T16:55:16.391Z,18.90
2023-05-08T16:57:44.421Z,18.90
2023-05-08T17:00:13.815Z,18.90
2023-05-08T17:02:42.514Z,18.80
2023-05-08T17:05:12.240Z,18.90
2023-05-08T17:07:40.603Z,18.90
2023-05-08T17:10:10.383Z,18.90
2023-05-08T17:12:38.422Z,18.90
2023-05-08T17:15:07.454Z,18.90
2023-05-08T17:17:35.435Z,19.00
2023-05-08T17:20:03.417Z,19.00
2023-05-08T17:22:33.009Z,19.00
2023-05-08T17:25:01.066Z,19.00
2023-05-08T17:27:29.076Z,18.90
2023-05-08T17:29:57.146Z,18.90
2023-05-08T17:32:25.120Z,18.90
2023-05-08T17:34:53.152Z,18.90
2023-05-08T17:37:21.573Z,18.90
2023-05-08T17:39:50.912Z,18.80
2023-05-08T17:42:19.191Z,18.90
2023-05-08T17:44:47.389Z,18.90
2023-05-08T17:47:15.470Z,18.90
2023-05-08T17:49:43.450Z,18.90
2023-05-08T17:52:11.393Z,18.90
2023-05-08T17:54:39.470Z,18.90
2023-05-08T17:57:09.041Z,18.80
2023-05-08T17:59:37.118Z,18.90
2023-05-08T18:02:05.150Z,18.90
2023-05-08T18:04:33.148Z,18.90
2023-05-08T18:07:03.975Z,18.90
2023-05-08T18:09:32.811Z,18.80
2023-05-08T18:12:03.755Z,18.80
2023-05-08T18:14:35.914Z,18.80
2023-05-08T18:17:04.069Z,18.80
2023-05-08T18:19:32.323Z,18.80
2023-05-08T18:22:00.703Z,18.80
2023-05-08T18:24:30.511Z,18.80
2023-05-08T18:26:58.707Z,18.70
2023-05-08T18:29:27.958Z,18.70
2023-05-08T18:31:57.719Z,18.70
2023-05-08T18:34:28.440Z,18.70
2023-05-08T18:36:58.150Z,18.60
2023-05-08T18:39:26.356Z,18.60
2023-05-08T18:41:59.000Z,18.60
2023-05-08T18:44:29.541Z,18.50
2023-05-08T18:46:59.715Z,18.50
2023-05-08T18:49:27.803Z,18.50
2023-05-08T18:52:16.062Z,18.40
2023-05-08T18:54:46.224Z,18.40
2023-05-08T18:57:14.467Z,18.30
2023-05-08T18:59:42.461Z,18.30
2023-05-08T19:02:12.262Z,18.20
2023-05-08T19:04:41.228Z,18.20
2023-05-08T19:07:09.614Z,18.20
2023-05-08T19:09:37.797Z,18.10
2023-05-08T19:12:05.975Z,18.10
2023-05-08T19:14:36.898Z,18.00
2023-05-08T19:17:04.946Z,18.00
2023-05-08T19:19:34.380Z,18.00
2023-05-08T19:22:02.491Z,18.00
2023-05-08T19:24:31.990Z,17.90
2023-05-08T19:27:00.439Z,17.90
2023-05-08T19:29:28.381Z,17.90
2023-05-08T19:31:57.573Z,17.80
2023-05-08T19:34:26.195Z,17.80
2023-05-08T19:37:04.494Z,17.70
2023-05-08T19:39:32.749Z,17.70
2023-05-08T19:42:01.742Z,17.70
2023-05-08T19:44:31.520Z,17.70
2023-05-08T19:47:00.989Z,17.70
2023-05-08T19:49:30.396Z,17.70
2023-05-08T19:51:59.852Z,17.60
2023-05-08T19:54:28.140Z,17.60
2023-05-08T19:56:56.265Z,17.60
2023-05-08T19:59:24.384Z,17.60
2023-05-08T20:01:53.774Z,17.60
2023-05-08T20:04:23.173Z,17.60
2023-05-08T20:06:51.189Z,17.60
2023-05-08T20:09:20.761Z,17.60
2023-05-08T20:11:49.745Z,17.60
2023-05-08T20:14:17.994Z,17.60
2023-05-08T20:16:49.186Z,17.60
2023-05-08T20:19:17.684Z,17.60
2023-05-08T20:21:48.592Z,17.60
2023-05-08T20:24:17.148Z,17.60
2023-05-08T20:26:46.741Z,17.60
2023-05-08T20:29:16.409Z,17.60
2023-05-08T20:31:45.515Z,17.60
2023-05-08T20:34:13.706Z,17.50
2023-05-08T20:36:42.284Z,17.50
2023-05-08T20:39:10.601Z,17.50
2023-05-08T20:41:38.977Z,17.50
2023-05-08T20:44:08.578Z,17.50
2023-05-08T20:46:36.997Z,17.40
2023-05-08T20:49:06.056Z,17.40
2023-05-08T20:51:36.705Z,17.40
2023-05-08T20:54:04.934Z,17.40
2023-05-08T20:56:37.891Z,17.40
2023-05-08T20:59:06.078Z,17.40
2023-05-08T21:01:35.569Z,17.40
2023-05-08T21:04:03.599Z,17.40
2023-05-08T21:06:32.385Z,17.40
2023-05-08T21:09:03.294Z,17.30
2023-05-08T21:11:32.369Z,17.30
2023-05-08T21:14:00.347Z,17.20
2023-05-08T21:16:28.350Z,17.30
2023-05-08T21:18:58.581Z,17.30
2023-05-08T21:21:27.168Z,17.30
2023-05-08T21:23:55.284Z,17.30
2023-05-08T21:26:23.947Z,17.30
2023-05-08T21:28:53.934Z,17.30
2023-05-08T21:31:22.525Z,17.30
2023-05-08T21:33:51.976Z,17.30
2023-05-08T21:36:24.917Z,17.30
2023-05-08T21:38:53.157Z,17.30
2023-05-08T21:41:22.024Z,17.30
2023-05-08T21:43:50.204Z,17.30
2023-05-08T21:46:18.200Z,17.30
2023-05-08T21:48:46.320Z,17.30
2023-05-08T21:51:14.314Z,17.30
2023-05-08T21:53:43.861Z,17.30
2023-05-08T21:56:11.961Z,17.30
2023-05-08T21:58:41.300Z,17.30
2023-05-08T22:01:11.438Z,17.30
2023-05-08T22:03:41.239Z,17.30
2023-05-08T22:06:09.711Z,17.30
2023-05-08T22:08:38.054Z,17.30
2023-05-08T22:11:10.391Z,17.30
2023-05-08T22:13:38.424Z,17.30
2023-05-08T22:16:08.520Z,17.30
2023-05-08T22:18:39.376Z,17.30
2023-05-08T22:21:07.673Z,17.30
2023-05-08T22:23:36.692Z,17.30
2023-05-08T22:26:04.885Z,17.30
2023-05-08T22:28:36.139Z,17.30
2023-05-08T22:31:06.693Z,17.30
2023-05-08T22:33:37.741Z,17.30
2023-05-08T22:36:06.427Z,17.20
2023-05-08T22:38:34.823Z,17.30
2023-05-08T22:41:05.745Z,17.20
2023-05-08T22:43:35.263Z,17.30
2023-05-08T22:46:03.678Z,17.30
2023-05-08T22:48:33.460Z,17.30
2023-05-08T22:51:03.786Z,17.30
2023-05-08T22:53:31.987Z,17.30
2023-05-08T22:56:00.042Z,17.30
2023-05-08T22:58:29.272Z,17.30
2023-05-08T23:01:00.626Z,17.30
2023-05-08T23:03:29.061Z,17.30
2023-05-08T23:05:57.314Z,17.30
2023-05-08T23:08:25.501Z,17.30
2023-05-08T23:10:53.485Z,17.30
2023-05-08T23:13:21.643Z,17.30
2023-05-08T23:15:49.933Z,17.20
2023-05-08T23:18:19.443Z,17.20
2023-05-08T23:20:47.543Z,17.20
2023-05-08T23:23:15.530Z,17.20
2023-05-08T23:25:44.502Z,17.20
2023-05-08T23:28:12.733Z,17.20
2023-05-08T23:30:40.748Z,17.20
2023-05-08T23:33:08.714Z,17.20
2023-05-08T23:35:38.695Z,17.20
2023-05-08T23:38:07.001Z,17.20
2023-05-08T23:40:35.697Z,17.20
2023-05-08T23:43:04.226Z,17.20
2023-05-08T23:45:33.222Z,17.20
2023-05-08T23:48:02.208Z,17.20
2023-05-08T23:50:30.882Z,17.20
2023-05-08T23:53:00.419Z,17.20
2023-05-08T23:55:28.513Z,17.20
2023-05-08T23:57:57.176Z,17.20
